sensor_id;sensor_type;location;lat;lon;timestamp;P1;durP1;ratioP1;P2;durP2;ratioP2
74483;SDS011;62942;52.462;10.846;2023-04-15T00:00:10;7.6;;;10.7;;
74483;SDS011;62942;52.462;10.846;2023-04-15T00:01:19;7.3;;;10.3;;
74483;SDS011;62942;52.462;10.846;2023-04-15T00:02:29;7.4;;;10.3;;
74483;SDS011;62942;52.462;10.846;2023-04-15T00:03:39;7.3;;;10.2;;
74483;SDS011;62942;52.462;10.846;2023-04-15T00:04:49;6.5;;;8.8;;
74483;SDS011;62942;52.462;10.846;2023-04-15T00:05:59;6.9;;;8.8;;
74483;SDS011;62942;52.462;10.846;2023-04-15T00:06:59;7;;;9.7;;
74483;SDS011;62942;52.462;10.846;2023-04-15T00:08:09;6.9;;;9.3;;
74483;SDS011;62942;52.462;10.846;2023-04-15T00:09:09;7.1;;;9.7;;
74483;SDS011;62942;52.462;10.846;2023-04-15T00:10:19;6.9;;;9.1;;
74483;SDS011;62942;52.462;10.846;2023-04-15T00:11:29;7.2;;;9.9;;
74483;SDS011;62942;52.462;10.846;2023-04-15T00:12:29;7.3;;;10.3;;
74483;SDS011;62942;52.462;10.846;2023-04-15T00:13:39;7.4;;;10.9;;
74483;SDS011;62942;52.462;10.846;2023-04-15T00:14:49;7.9;;;11.8;;
74483;SDS011;62942;52.462;10.846;2023-04-15T00:15:49;7.7;;;10.6;;
74483;SDS011;62942;52.462;10.846;2023-04-15T00:16:59;7.7;;;10.6;;
74483;SDS011;62942;52.462;10.846;2023-04-15T00:18:09;7.7;;;10.6;;
74483;SDS011;62942;52.462;10.846;2023-04-15T00:19:19;7.8;;;10.4;;
74483;SDS011;62942;52.462;10.846;2023-04-15T00:20:29;8;;;12.1;;
74483;SDS011;62942;52.462;10.846;2023-04-15T00:21:39;7.8;;;10.8;;
74483;SDS011;62942;52.462;10.846;2023-04-15T00:22:49;8;;;11.5;;
74483;SDS011;62942;52.462;10.846;2023-04-15T00:23:59;8.7;;;11.8;;
74483;SDS011;62942;52.462;10.846;2023-04-15T00:24:59;8.5;;;11.4;;
74483;SDS011;62942;52.462;10.846;2023-04-15T00:26:09;8.4;;;11.9;;
74483;SDS011;62942;52.462;10.846;2023-04-15T00:27:19;8.6;;;12.2;;
74483;SDS011;62942;52.462;10.846;2023-04-15T00:28:19;8.8;;;12.7;;
74483;SDS011;62942;52.462;10.846;2023-04-15T00:29:29;8.8;;;12.2;;
74483;SDS011;62942;52.462;10.846;2023-04-15T00:30:39;9;;;12.7;;
74483;SDS011;62942;52.462;10.846;2023-04-15T00:31:49;9.1;;;13.2;;
74483;SDS011;62942;52.462;10.846;2023-04-15T00:32:49;9.1;;;13.8;;
74483;SDS011;62942;52.462;10.846;2023-04-15T00:33:59;9;;;12.3;;
74483;SDS011;62942;52.462;10.846;2023-04-15T00:34:59;9.5;;;13.7;;
74483;SDS011;62942;52.462;10.846;2023-04-15T00:36:09;9.5;;;15.7;;
74483;SDS011;62942;52.462;10.846;2023-04-15T00:37:09;9.2;;;13;;
74483;SDS011;62942;52.462;10.846;2023-04-15T00:38:19;9.5;;;13.5;;
74483;SDS011;62942;52.462;10.846;2023-04-15T00:39:29;9.8;;;15.1;;
74483;SDS011;62942;52.462;10.846;2023-04-15T00:40:29;10.1;;;16.2;;
74483;SDS011;62942;52.462;10.846;2023-04-15T00:41:39;10;;;15;;
74483;SDS011;62942;52.462;10.846;2023-04-15T00:42:39;10.3;;;15.3;;
74483;SDS011;62942;52.462;10.846;2023-04-15T00:43:49;9.9;;;14.6;;
74483;SDS011;62942;52.462;10.846;2023-04-15T00:44:59;10.2;;;15;;
74483;SDS011;62942;52.462;10.846;2023-04-15T00:45:59;10.2;;;16.8;;
74483;SDS011;62942;52.462;10.846;2023-04-15T00:47:09;10.1;;;15.3;;
74483;SDS011;62942;52.462;10.846;2023-04-15T00:48:09;10.1;;;15.8;;
74483;SDS011;62942;52.462;10.846;2023-04-15T00:49:19;10.3;;;15.3;;
74483;SDS011;62942;52.462;10.846;2023-04-15T00:50:29;10.6;;;15.4;;
74483;SDS011;62942;52.462;10.846;2023-04-15T00:51:29;10.2;;;15.3;;
74483;SDS011;62942;52.462;10.846;2023-04-15T00:52:29;10.3;;;15.2;;
74483;SDS011;62942;52.462;10.846;2023-04-15T00:53:39;10.1;;;15.8;;
74483;SDS011;62942;52.462;10.846;2023-04-15T00:54:49;10.6;;;15.7;;
74483;SDS011;62942;52.462;10.846;2023-04-15T00:55:49;10.3;;;16.3;;
74483;SDS011;62942;52.462;10.846;2023-04-15T00:57:00;10.3;;;15.5;;
74483;SDS011;62942;52.462;10.846;2023-04-15T00:58:09;10.9;;;16.8;;
74483;SDS011;62942;52.462;10.846;2023-04-15T00:59:19;10.1;;;16.4;;
74483;SDS011;62942;52.462;10.846;2023-04-15T01:00:29;11.3;;;17.3;;
74483;SDS011;62942;52.462;10.846;2023-04-15T01:01:29;10.8;;;17.6;;
74483;SDS011;62942;52.462;10.846;2023-04-15T01:02:39;11.5;;;17.5;;
74483;SDS011;62942;52.462;10.846;2023-04-15T01:03:39;10.7;;;16.1;;
74483;SDS011;62942;52.462;10.846;2023-04-15T01:04:49;11.5;;;18.4;;
74483;SDS011;62942;52.462;10.846;2023-04-15T01:05:59;11.6;;;17.6;;
74483;SDS011;62942;52.462;10.846;2023-04-15T01:06:59;11.6;;;18;;
74483;SDS011;62942;52.462;10.846;2023-04-15T01:08:09;11.2;;;17.4;;
74483;SDS011;62942;52.462;10.846;2023-04-15T01:09:19;11.6;;;18;;
74483;SDS011;62942;52.462;10.846;2023-04-15T01:10:29;12;;;19.2;;
74483;SDS011;62942;52.462;10.846;2023-04-15T01:11:29;12.1;;;18.8;;
74483;SDS011;62942;52.462;10.846;2023-04-15T01:12:39;12;;;18.8;;
74483;SDS011;62942;52.462;10.846;2023-04-15T01:13:49;12.2;;;19.4;;
74483;SDS011;62942;52.462;10.846;2023-04-15T01:14:49;12.8;;;21.5;;
74483;SDS011;62942;52.462;10.846;2023-04-15T01:15:59;12.6;;;20.2;;
74483;SDS011;62942;52.462;10.846;2023-04-15T01:17:09;13.2;;;21.8;;
74483;SDS011;62942;52.462;10.846;2023-04-15T01:18:19;12.9;;;20.3;;
74483;SDS011;62942;52.462;10.846;2023-04-15T01:19:29;12.8;;;22;;
74483;SDS011;62942;52.462;10.846;2023-04-15T01:20:29;13.1;;;21.5;;
74483;SDS011;62942;52.462;10.846;2023-04-15T01:21:39;13.3;;;21.9;;
74483;SDS011;62942;52.462;10.846;2023-04-15T01:22:39;13.7;;;22.2;;
74483;SDS011;62942;52.462;10.846;2023-04-15T01:23:49;13.5;;;21.5;;
74483;SDS011;62942;52.462;10.846;2023-04-15T01:24:50;14.1;;;24.1;;
74483;SDS011;62942;52.462;10.846;2023-04-15T01:25:59;13.9;;;23;;
74483;SDS011;62942;52.462;10.846;2023-04-15T01:26:59;13;;;21.7;;
74483;SDS011;62942;52.462;10.846;2023-04-15T01:28:09;13.5;;;21.8;;
74483;SDS011;62942;52.462;10.846;2023-04-15T01:29:09;13.6;;;23.1;;
74483;SDS011;62942;52.462;10.846;2023-04-15T01:30:19;13.5;;;22.4;;
74483;SDS011;62942;52.462;10.846;2023-04-15T01:31:29;13.8;;;22.4;;
74483;SDS011;62942;52.462;10.846;2023-04-15T01:32:29;13.6;;;22;;
74483;SDS011;62942;52.462;10.846;2023-04-15T01:33:40;13.7;;;21.7;;
74483;SDS011;62942;52.462;10.846;2023-04-15T01:34:49;14.1;;;23.8;;
74483;SDS011;62942;52.462;10.846;2023-04-15T01:35:59;14;;;24.1;;
74483;SDS011;62942;52.462;10.846;2023-04-15T01:37:09;13.6;;;22.6;;
74483;SDS011;62942;52.462;10.846;2023-04-15T01:38:11;13.6;;;22.4;;
74483;SDS011;62942;52.462;10.846;2023-04-15T01:39:19;14.4;;;24.7;;
74483;SDS011;62942;52.462;10.846;2023-04-15T01:40:29;13.6;;;22.6;;
74483;SDS011;62942;52.462;10.846;2023-04-15T01:41:29;14.1;;;23.8;;
74483;SDS011;62942;52.462;10.846;2023-04-15T01:42:39;13.5;;;21.7;;
74483;SDS011;62942;52.462;10.846;2023-04-15T01:43:39;14;;;23.6;;
74483;SDS011;62942;52.462;10.846;2023-04-15T01:44:49;13.2;;;21.4;;
74483;SDS011;62942;52.462;10.846;2023-04-15T01:45:59;13.4;;;22;;
74483;SDS011;62942;52.462;10.846;2023-04-15T01:47:09;13.2;;;21.8;;
74483;SDS011;62942;52.462;10.846;2023-04-15T01:48:19;13.1;;;22.4;;
74483;SDS011;62942;52.462;10.846;2023-04-15T01:49:29;12.7;;;20.1;;
74483;SDS011;62942;52.462;10.846;2023-04-15T01:50:39;13.1;;;21.1;;
74483;SDS011;62942;52.462;10.846;2023-04-15T01:51:49;12.6;;;20.1;;
74483;SDS011;62942;52.462;10.846;2023-04-15T01:52:59;13;;;20.7;;
74483;SDS011;62942;52.462;10.846;2023-04-15T01:54:09;13;;;22.1;;
74483;SDS011;62942;52.462;10.846;2023-04-15T01:55:10;12.6;;;20.3;;
74483;SDS011;62942;52.462;10.846;2023-04-15T01:56:19;12.3;;;20.3;;
74483;SDS011;62942;52.462;10.846;2023-04-15T01:57:29;12.4;;;20.3;;
74483;SDS011;62942;52.462;10.846;2023-04-15T01:58:39;12.4;;;20.6;;
74483;SDS011;62942;52.462;10.846;2023-04-15T01:59:39;12.3;;;20.7;;
74483;SDS011;62942;52.462;10.846;2023-04-15T02:00:49;12;;;19.5;;
74483;SDS011;62942;52.462;10.846;2023-04-15T02:01:59;12;;;20;;
74483;SDS011;62942;52.462;10.846;2023-04-15T02:02:59;12.2;;;19.4;;
74483;SDS011;62942;52.462;10.846;2023-04-15T02:04:10;11.4;;;19.1;;
74483;SDS011;62942;52.462;10.846;2023-04-15T02:05:09;11.7;;;18.7;;
74483;SDS011;62942;52.462;10.846;2023-04-15T02:06:19;12.2;;;21.1;;
74483;SDS011;62942;52.462;10.846;2023-04-15T02:07:19;12;;;19.7;;
74483;SDS011;62942;52.462;10.846;2023-04-15T02:08:29;11.9;;;20;;
74483;SDS011;62942;52.462;10.846;2023-04-15T02:09:39;12.1;;;20.2;;
74483;SDS011;62942;52.462;10.846;2023-04-15T02:10:49;12.7;;;21.1;;
74483;SDS011;62942;52.462;10.846;2023-04-15T02:11:49;12.2;;;19.7;;
74483;SDS011;62942;52.462;10.846;2023-04-15T02:12:59;12;;;19.7;;
74483;SDS011;62942;52.462;10.846;2023-04-15T02:13:59;11.9;;;20.2;;
74483;SDS011;62942;52.462;10.846;2023-04-15T02:15:09;12.5;;;21.3;;
74483;SDS011;62942;52.462;10.846;2023-04-15T02:16:19;12.5;;;21.3;;
74483;SDS011;62942;52.462;10.846;2023-04-15T02:17:19;12;;;19.3;;
74483;SDS011;62942;52.462;10.846;2023-04-15T02:18:29;12.1;;;21.2;;
74483;SDS011;62942;52.462;10.846;2023-04-15T02:19:39;11.8;;;20.8;;
74483;SDS011;62942;52.462;10.846;2023-04-15T02:20:50;12;;;21.1;;
74483;SDS011;62942;52.462;10.846;2023-04-15T02:21:59;12.3;;;19.9;;
74483;SDS011;62942;52.462;10.846;2023-04-15T02:22:59;11.9;;;20.1;;
74483;SDS011;62942;52.462;10.846;2023-04-15T02:24:09;12.2;;;20.8;;
74483;SDS011;62942;52.462;10.846;2023-04-15T02:25:19;12.1;;;20.8;;
74483;SDS011;62942;52.462;10.846;2023-04-15T02:26:19;12;;;21;;
74483;SDS011;62942;52.462;10.846;2023-04-15T02:27:29;12.2;;;20.4;;
74483;SDS011;62942;52.462;10.846;2023-04-15T02:28:39;12.6;;;21.6;;
74483;SDS011;62942;52.462;10.846;2023-04-15T02:29:39;11.9;;;19.7;;
74483;SDS011;62942;52.462;10.846;2023-04-15T02:30:49;11.6;;;19.9;;
74483;SDS011;62942;52.462;10.846;2023-04-15T02:31:59;11.8;;;19.9;;
74483;SDS011;62942;52.462;10.846;2023-04-15T02:32:59;12.1;;;20.5;;
74483;SDS011;62942;52.462;10.846;2023-04-15T02:34:09;11.9;;;20.3;;
74483;SDS011;62942;52.462;10.846;2023-04-15T02:35:19;12.1;;;20.5;;
74483;SDS011;62942;52.462;10.846;2023-04-15T02:36:29;12.2;;;20.6;;
74483;SDS011;62942;52.462;10.846;2023-04-15T02:37:39;12.2;;;21.8;;
74483;SDS011;62942;52.462;10.846;2023-04-15T02:38:39;12.4;;;22;;
74483;SDS011;62942;52.462;10.846;2023-04-15T02:39:49;13;;;23.8;;
74483;SDS011;62942;52.462;10.846;2023-04-15T02:40:59;12.4;;;22.1;;
74483;SDS011;62942;52.462;10.846;2023-04-15T02:42:09;12.1;;;20.6;;
74483;SDS011;62942;52.462;10.846;2023-04-15T02:43:19;12.4;;;21.9;;
74483;SDS011;62942;52.462;10.846;2023-04-15T02:44:29;12.4;;;21.4;;
74483;SDS011;62942;52.462;10.846;2023-04-15T02:45:39;12;;;21.8;;
74483;SDS011;62942;52.462;10.846;2023-04-15T02:46:39;12.3;;;21.6;;
74483;SDS011;62942;52.462;10.846;2023-04-15T02:47:49;12.4;;;21.9;;
74483;SDS011;62942;52.462;10.846;2023-04-15T02:48:59;12.1;;;21;;
74483;SDS011;62942;52.462;10.846;2023-04-15T02:49:59;12.4;;;22.2;;
74483;SDS011;62942;52.462;10.846;2023-04-15T02:51:10;11.9;;;21.3;;
74483;SDS011;62942;52.462;10.846;2023-04-15T02:52:19;12.2;;;21.7;;
74483;SDS011;62942;52.462;10.846;2023-04-15T02:53:29;12.4;;;22.6;;
74483;SDS011;62942;52.462;10.846;2023-04-15T02:54:29;12.3;;;21.7;;
74483;SDS011;62942;52.462;10.846;2023-04-15T02:55:39;12.3;;;22.4;;
74483;SDS011;62942;52.462;10.846;2023-04-15T02:56:49;12.1;;;22.5;;
74483;SDS011;62942;52.462;10.846;2023-04-15T02:57:49;12.5;;;23;;
74483;SDS011;62942;52.462;10.846;2023-04-15T02:58:59;12.2;;;22;;
74483;SDS011;62942;52.462;10.846;2023-04-15T03:00:09;12;;;23.1;;
74483;SDS011;62942;52.462;10.846;2023-04-15T03:01:19;12.5;;;23;;
74483;SDS011;62942;52.462;10.846;2023-04-15T03:02:19;12.5;;;23.4;;
74483;SDS011;62942;52.462;10.846;2023-04-15T03:03:29;12.1;;;22;;
74483;SDS011;62942;52.462;10.846;2023-04-15T03:04:39;12;;;22.5;;
74483;SDS011;62942;52.462;10.846;2023-04-15T03:05:39;12.1;;;22.1;;
74483;SDS011;62942;52.462;10.846;2023-04-15T03:06:49;11.9;;;21.8;;
74483;SDS011;62942;52.462;10.846;2023-04-15T03:07:59;12.7;;;22.9;;
74483;SDS011;62942;52.462;10.846;2023-04-15T03:08:59;11.9;;;23;;
74483;SDS011;62942;52.462;10.846;2023-04-15T03:10:09;12.2;;;22.3;;
74483;SDS011;62942;52.462;10.846;2023-04-15T03:11:19;12;;;21.6;;
74483;SDS011;62942;52.462;10.846;2023-04-15T03:12:29;11.8;;;21.3;;
74483;SDS011;62942;52.462;10.846;2023-04-15T03:13:29;11.7;;;22.1;;
74483;SDS011;62942;52.462;10.846;2023-04-15T03:14:39;11.5;;;20.5;;
74483;SDS011;62942;52.462;10.846;2023-04-15T03:15:39;11.7;;;22.3;;
74483;SDS011;62942;52.462;10.846;2023-04-15T03:16:49;11.7;;;21.4;;
74483;SDS011;62942;52.462;10.846;2023-04-15T03:17:59;11.9;;;21.7;;
74483;SDS011;62942;52.462;10.846;2023-04-15T03:19:09;11.5;;;21.3;;
74483;SDS011;62942;52.462;10.846;2023-04-15T03:20:19;11.6;;;22;;
74483;SDS011;62942;52.462;10.846;2023-04-15T03:21:29;11.7;;;23.4;;
74483;SDS011;62942;52.462;10.846;2023-04-15T03:22:29;11.6;;;21.5;;
74483;SDS011;62942;52.462;10.846;2023-04-15T03:23:39;11.8;;;22.6;;
74483;SDS011;62942;52.462;10.846;2023-04-15T03:24:39;11.7;;;22.7;;
74483;SDS011;62942;52.462;10.846;2023-04-15T03:25:49;11.5;;;21.6;;
74483;SDS011;62942;52.462;10.846;2023-04-15T03:26:59;11.5;;;22.5;;
74483;SDS011;62942;52.462;10.846;2023-04-15T03:28:09;11.8;;;22.1;;
74483;SDS011;62942;52.462;10.846;2023-04-15T03:29:19;11.5;;;21.8;;
74483;SDS011;62942;52.462;10.846;2023-04-15T03:30:29;11.4;;;21.7;;
74483;SDS011;62942;52.462;10.846;2023-04-15T03:31:39;11.9;;;23.6;;
74483;SDS011;62942;52.462;10.846;2023-04-15T03:32:39;11.4;;;21.7;;
74483;SDS011;62942;52.462;10.846;2023-04-15T03:33:49;11.4;;;21.6;;
74483;SDS011;62942;52.462;10.846;2023-04-15T03:34:49;11.8;;;23;;
74483;SDS011;62942;52.462;10.846;2023-04-15T03:35:59;11.1;;;20.7;;
74483;SDS011;62942;52.462;10.846;2023-04-15T03:37:09;11.1;;;21;;
74483;SDS011;62942;52.462;10.846;2023-04-15T03:38:19;11.4;;;23.1;;
74483;SDS011;62942;52.462;10.846;2023-04-15T03:39:29;11.1;;;20.9;;
74483;SDS011;62942;52.462;10.846;2023-04-15T03:40:39;11.1;;;21.7;;
74483;SDS011;62942;52.462;10.846;2023-04-15T03:41:49;10.9;;;21.3;;
74483;SDS011;62942;52.462;10.846;2023-04-15T03:42:59;11.1;;;20.6;;
74483;SDS011;62942;52.462;10.846;2023-04-15T03:44:09;11.4;;;22.2;;
74483;SDS011;62942;52.462;10.846;2023-04-15T03:45:19;10.8;;;20.1;;
74483;SDS011;62942;52.462;10.846;2023-04-15T03:46:19;11.2;;;21.8;;
74483;SDS011;62942;52.462;10.846;2023-04-15T03:47:29;11.1;;;21.8;;
74483;SDS011;62942;52.462;10.846;2023-04-15T03:48:39;10.3;;;20.2;;
74483;SDS011;62942;52.462;10.846;2023-04-15T03:49:49;10.8;;;19.9;;
74483;SDS011;62942;52.462;10.846;2023-04-15T03:50:59;10.6;;;20.7;;
74483;SDS011;62942;52.462;10.846;2023-04-15T03:52:09;10.3;;;19.8;;
74483;SDS011;62942;52.462;10.846;2023-04-15T03:53:19;10.7;;;20.6;;
74483;SDS011;62942;52.462;10.846;2023-04-15T03:54:29;11.4;;;21.8;;
74483;SDS011;62942;52.462;10.846;2023-04-15T03:55:39;10.2;;;20.1;;
74483;SDS011;62942;52.462;10.846;2023-04-15T03:56:49;10.8;;;19.8;;
74483;SDS011;62942;52.462;10.846;2023-04-15T03:57:49;10.9;;;21.4;;
74483;SDS011;62942;52.462;10.846;2023-04-15T03:58:59;10.9;;;20.5;;
74483;SDS011;62942;52.462;10.846;2023-04-15T04:00:09;10.7;;;21;;
74483;SDS011;62942;52.462;10.846;2023-04-15T04:01:19;11;;;21;;
74483;SDS011;62942;52.462;10.846;2023-04-15T04:02:29;10.7;;;21;;
74483;SDS011;62942;52.462;10.846;2023-04-15T04:03:39;10.9;;;21.2;;
74483;SDS011;62942;52.462;10.846;2023-04-15T04:04:49;10.9;;;21.7;;
74483;SDS011;62942;52.462;10.846;2023-04-15T04:05:59;10.3;;;19;;
74483;SDS011;62942;52.462;10.846;2023-04-15T04:07:13;10.5;;;21;;
74483;SDS011;62942;52.462;10.846;2023-04-15T04:08:19;10.3;;;19.8;;
74483;SDS011;62942;52.462;10.846;2023-04-15T04:09:29;10.2;;;19.9;;
74483;SDS011;62942;52.462;10.846;2023-04-15T04:10:29;10.3;;;19.2;;
74483;SDS011;62942;52.462;10.846;2023-04-15T04:11:39;10.6;;;20.2;;
74483;SDS011;62942;52.462;10.846;2023-04-15T04:12:39;10.5;;;20.4;;
74483;SDS011;62942;52.462;10.846;2023-04-15T04:13:49;10.7;;;19.5;;
74483;SDS011;62942;52.462;10.846;2023-04-15T04:14:49;10.2;;;19.3;;
74483;SDS011;62942;52.462;10.846;2023-04-15T04:15:59;10.4;;;19.7;;
74483;SDS011;62942;52.462;10.846;2023-04-15T04:17:09;10.6;;;21;;
74483;SDS011;62942;52.462;10.846;2023-04-15T04:18:19;10;;;19.3;;
74483;SDS011;62942;52.462;10.846;2023-04-15T04:19:19;10.7;;;20.3;;
74483;SDS011;62942;52.462;10.846;2023-04-15T04:20:29;10.5;;;20.6;;
74483;SDS011;62942;52.462;10.846;2023-04-15T04:21:39;10.9;;;21.7;;
74483;SDS011;62942;52.462;10.846;2023-04-15T04:22:49;10.5;;;20.8;;
74483;SDS011;62942;52.462;10.846;2023-04-15T04:23:49;10.3;;;20.3;;
74483;SDS011;62942;52.462;10.846;2023-04-15T04:24:59;10.5;;;21.5;;
74483;SDS011;62942;52.462;10.846;2023-04-15T04:25:59;10.6;;;20.5;;
74483;SDS011;62942;52.462;10.846;2023-04-15T04:27:09;10.7;;;21.4;;
74483;SDS011;62942;52.462;10.846;2023-04-15T04:28:19;10.6;;;21.5;;
74483;SDS011;62942;52.462;10.846;2023-04-15T04:29:19;10.9;;;20.2;;
74483;SDS011;62942;52.462;10.846;2023-04-15T04:30:29;10.9;;;20.5;;
74483;SDS011;62942;52.462;10.846;2023-04-15T04:31:39;10.4;;;20.4;;
74483;SDS011;62942;52.462;10.846;2023-04-15T04:32:49;10.8;;;20.9;;
74483;SDS011;62942;52.462;10.846;2023-04-15T04:33:49;11;;;21.7;;
74483;SDS011;62942;52.462;10.846;2023-04-15T04:34:49;11.3;;;22.9;;
74483;SDS011;62942;52.462;10.846;2023-04-15T04:35:59;11;;;22.2;;
74483;SDS011;62942;52.462;10.846;2023-04-15T04:37:09;11.1;;;21;;
74483;SDS011;62942;52.462;10.846;2023-04-15T04:38:19;10.6;;;20.5;;
74483;SDS011;62942;52.462;10.846;2023-04-15T04:39:19;11;;;22.9;;
74483;SDS011;62942;52.462;10.846;2023-04-15T04:40:29;11.2;;;20.9;;
74483;SDS011;62942;52.462;10.846;2023-04-15T04:41:39;10.9;;;22;;
74483;SDS011;62942;52.462;10.846;2023-04-15T04:42:39;10.7;;;21.2;;
74483;SDS011;62942;52.462;10.846;2023-04-15T04:43:49;11;;;22.5;;
74483;SDS011;62942;52.462;10.846;2023-04-15T04:44:59;10.8;;;20.6;;
74483;SDS011;62942;52.462;10.846;2023-04-15T04:45:59;10.2;;;19.3;;
74483;SDS011;62942;52.462;10.846;2023-04-15T04:47:09;10.4;;;19.5;;
74483;SDS011;62942;52.462;10.846;2023-04-15T04:48:19;10.5;;;21;;
74483;SDS011;62942;52.462;10.846;2023-04-15T04:49:29;10.2;;;18.9;;
74483;SDS011;62942;52.462;10.846;2023-04-15T04:50:29;9.7;;;17;;
74483;SDS011;62942;52.462;10.846;2023-04-15T04:51:39;9.6;;;18.7;;
74483;SDS011;62942;52.462;10.846;2023-04-15T04:52:49;9.8;;;17.3;;
74483;SDS011;62942;52.462;10.846;2023-04-15T04:53:49;9.8;;;18;;
74483;SDS011;62942;52.462;10.846;2023-04-15T04:54:59;9.3;;;17.3;;
74483;SDS011;62942;52.462;10.846;2023-04-15T04:56:09;8.8;;;15.6;;
74483;SDS011;62942;52.462;10.846;2023-04-15T04:57:19;9.1;;;16.8;;
74483;SDS011;62942;52.462;10.846;2023-04-15T04:58:19;9.2;;;16.9;;
74483;SDS011;62942;52.462;10.846;2023-04-15T04:59:19;9.1;;;16.2;;
74483;SDS011;62942;52.462;10.846;2023-04-15T05:00:29;9.2;;;18.1;;
74483;SDS011;62942;52.462;10.846;2023-04-15T05:01:39;9;;;15.5;;
74483;SDS011;62942;52.462;10.846;2023-04-15T05:02:49;8.9;;;15.5;;
74483;SDS011;62942;52.462;10.846;2023-04-15T05:03:59;8.9;;;16.5;;
74483;SDS011;62942;52.462;10.846;2023-04-15T05:05:09;9.2;;;16.3;;
74483;SDS011;62942;52.462;10.846;2023-04-15T05:06:09;9;;;15.6;;
74483;SDS011;62942;52.462;10.846;2023-04-15T05:07:19;8.8;;;15;;
74483;SDS011;62942;52.462;10.846;2023-04-15T05:08:29;8.8;;;16.2;;
74483;SDS011;62942;52.462;10.846;2023-04-15T05:09:39;8.8;;;16.6;;
74483;SDS011;62942;52.462;10.846;2023-04-15T05:10:39;9;;;15.6;;
74483;SDS011;62942;52.462;10.846;2023-04-15T05:11:49;8.8;;;14.8;;
74483;SDS011;62942;52.462;10.846;2023-04-15T05:13:00;9;;;16;;
74483;SDS011;62942;52.462;10.846;2023-04-15T05:13:59;8.9;;;15.2;;
74483;SDS011;62942;52.462;10.846;2023-04-15T05:15:09;9;;;15.7;;
74483;SDS011;62942;52.462;10.846;2023-04-15T05:16:09;8.6;;;16;;
74483;SDS011;62942;52.462;10.846;2023-04-15T05:17:19;8.6;;;14.1;;
74483;SDS011;62942;52.462;10.846;2023-04-15T05:18:19;8.6;;;15.9;;
74483;SDS011;62942;52.462;10.846;2023-04-15T05:19:29;8.7;;;14.8;;
74483;SDS011;62942;52.462;10.846;2023-04-15T05:20:39;8.7;;;15.4;;
74483;SDS011;62942;52.462;10.846;2023-04-15T05:21:39;8.7;;;15.6;;
74483;SDS011;62942;52.462;10.846;2023-04-15T05:22:49;8.7;;;15.5;;
74483;SDS011;62942;52.462;10.846;2023-04-15T05:23:59;8.5;;;14;;
74483;SDS011;62942;52.462;10.846;2023-04-15T05:25:09;8.3;;;14.5;;
74483;SDS011;62942;52.462;10.846;2023-04-15T05:26:19;8.6;;;15.5;;
74483;SDS011;62942;52.462;10.846;2023-04-15T05:27:29;8.4;;;14.2;;
74483;SDS011;62942;52.462;10.846;2023-04-15T05:28:29;8.5;;;14.6;;
74483;SDS011;62942;52.462;10.846;2023-04-15T05:29:39;8.4;;;15.4;;
74483;SDS011;62942;52.462;10.846;2023-04-15T05:30:49;8.3;;;14.2;;
74483;SDS011;62942;52.462;10.846;2023-04-15T05:31:59;8.4;;;14.4;;
74483;SDS011;62942;52.462;10.846;2023-04-15T05:32:59;8.1;;;14.7;;
74483;SDS011;62942;52.462;10.846;2023-04-15T05:34:09;7.9;;;13.3;;
74483;SDS011;62942;52.462;10.846;2023-04-15T05:35:09;7.8;;;12.9;;
74483;SDS011;62942;52.462;10.846;2023-04-15T05:36:19;8.1;;;13.4;;
74483;SDS011;62942;52.462;10.846;2023-04-15T05:37:29;7.7;;;12.5;;
74483;SDS011;62942;52.462;10.846;2023-04-15T05:38:39;8.1;;;13.6;;
74483;SDS011;62942;52.462;10.846;2023-04-15T05:39:49;8.2;;;13.4;;
74483;SDS011;62942;52.462;10.846;2023-04-15T05:40:49;7.8;;;12.5;;
74483;SDS011;62942;52.462;10.846;2023-04-15T05:41:49;7.9;;;13.1;;
74483;SDS011;62942;52.462;10.846;2023-04-15T05:42:49;7.8;;;12.8;;
74483;SDS011;62942;52.462;10.846;2023-04-15T05:43:59;8;;;13.4;;
74483;SDS011;62942;52.462;10.846;2023-04-15T05:44:59;7.9;;;12.7;;
74483;SDS011;62942;52.462;10.846;2023-04-15T05:46:09;7.9;;;13.1;;
74483;SDS011;62942;52.462;10.846;2023-04-15T05:47:09;7.9;;;12.4;;
74483;SDS011;62942;52.462;10.846;2023-04-15T05:48:19;8.2;;;13.4;;
74483;SDS011;62942;52.462;10.846;2023-04-15T05:49:29;8.1;;;13.6;;
74483;SDS011;62942;52.462;10.846;2023-04-15T05:50:39;8.1;;;13.6;;
74483;SDS011;62942;52.462;10.846;2023-04-15T05:51:49;8;;;13.3;;
74483;SDS011;62942;52.462;10.846;2023-04-15T05:52:59;7.6;;;12;;
74483;SDS011;62942;52.462;10.846;2023-04-15T05:53:59;8;;;13.4;;
74483;SDS011;62942;52.462;10.846;2023-04-15T05:54:59;8;;;13.5;;
74483;SDS011;62942;52.462;10.846;2023-04-15T05:55:59;7.9;;;12.6;;
74483;SDS011;62942;52.462;10.846;2023-04-15T05:57:09;7.7;;;12.8;;
74483;SDS011;62942;52.462;10.846;2023-04-15T05:58:09;7.8;;;12.7;;
74483;SDS011;62942;52.462;10.846;2023-04-15T05:59:19;7.9;;;13;;
74483;SDS011;62942;52.462;10.846;2023-04-15T06:00:29;7.7;;;12.6;;
74483;SDS011;62942;52.462;10.846;2023-04-15T06:01:29;8;;;13.5;;
74483;SDS011;62942;52.462;10.846;2023-04-15T06:02:39;7.5;;;12.5;;
74483;SDS011;62942;52.462;10.846;2023-04-15T06:03:49;7.8;;;12;;
74483;SDS011;62942;52.462;10.846;2023-04-15T06:04:59;7.9;;;13.4;;
74483;SDS011;62942;52.462;10.846;2023-04-15T06:05:59;7.7;;;12.6;;
74483;SDS011;62942;52.462;10.846;2023-04-15T06:07:09;8;;;12.9;;
74483;SDS011;62942;52.462;10.846;2023-04-15T06:08:09;8.1;;;12.7;;
74483;SDS011;62942;52.462;10.846;2023-04-15T06:09:19;8;;;12.8;;
74483;SDS011;62942;52.462;10.846;2023-04-15T06:10:29;7.9;;;12.6;;
74483;SDS011;62942;52.462;10.846;2023-04-15T06:11:29;8.3;;;13.6;;
74483;SDS011;62942;52.462;10.846;2023-04-15T06:12:39;8.4;;;13.5;;
74483;SDS011;62942;52.462;10.846;2023-04-15T06:13:49;8.1;;;13.2;;
74483;SDS011;62942;52.462;10.846;2023-04-15T06:14:59;8;;;12.9;;
74483;SDS011;62942;52.462;10.846;2023-04-15T06:15:59;7.9;;;13.1;;
74483;SDS011;62942;52.462;10.846;2023-04-15T06:17:09;7.8;;;12.5;;
74483;SDS011;62942;52.462;10.846;2023-04-15T06:18:19;7.8;;;12.7;;
74483;SDS011;62942;52.462;10.846;2023-04-15T06:19:19;7.7;;;12.1;;
74483;SDS011;62942;52.462;10.846;2023-04-15T06:20:29;7.9;;;12.5;;
74483;SDS011;62942;52.462;10.846;2023-04-15T06:21:39;7.9;;;12.8;;
74483;SDS011;62942;52.462;10.846;2023-04-15T06:22:49;8.2;;;13.6;;
74483;SDS011;62942;52.462;10.846;2023-04-15T06:23:49;8;;;13;;
74483;SDS011;62942;52.462;10.846;2023-04-15T06:24:59;7.7;;;12;;
74483;SDS011;62942;52.462;10.846;2023-04-15T06:25:59;7.7;;;12.6;;
74483;SDS011;62942;52.462;10.846;2023-04-15T06:27:09;7.6;;;11.7;;
74483;SDS011;62942;52.462;10.846;2023-04-15T06:28:19;8;;;12.1;;
74483;SDS011;62942;52.462;10.846;2023-04-15T06:29:19;7.7;;;11.9;;
74483;SDS011;62942;52.462;10.846;2023-04-15T06:30:29;7.8;;;12.8;;
74483;SDS011;62942;52.462;10.846;2023-04-15T06:31:39;7.8;;;12.2;;
74483;SDS011;62942;52.462;10.846;2023-04-15T06:32:49;7.8;;;12.1;;
74483;SDS011;62942;52.462;10.846;2023-04-15T06:33:49;7.7;;;12.2;;
74483;SDS011;62942;52.462;10.846;2023-04-15T06:34:59;7.6;;;12.5;;
74483;SDS011;62942;52.462;10.846;2023-04-15T06:35:59;7.7;;;12;;
74483;SDS011;62942;52.462;10.846;2023-04-15T06:37:09;8.1;;;12.7;;
74483;SDS011;62942;52.462;10.846;2023-04-15T06:38:09;7.8;;;12.3;;
74483;SDS011;62942;52.462;10.846;2023-04-15T06:39:19;7.8;;;11.8;;
74483;SDS011;62942;52.462;10.846;2023-04-15T06:40:19;7.7;;;12.5;;
74483;SDS011;62942;52.462;10.846;2023-04-15T06:41:29;7.9;;;12.9;;
74483;SDS011;62942;52.462;10.846;2023-04-15T06:42:29;8.2;;;13.5;;